createdAt,value
2019-06-20T00:00:51.428Z,99.90
2019-06-20T00:03:20.123Z,99.90
2019-06-20T00:05:48.822Z,99.90
2019-06-20T00:08:17.715Z,99.90
2019-06-20T00:10:46.411Z,99.90
2019-06-20T00:13:15.112Z,99.90
2019-06-20T00:15:43.836Z,99.90
2019-06-20T00:18:12.539Z,99.90
2019-06-20T00:20:41.235Z,99.90
2019-06-20T00:23:09.872Z,99.90
2019-06-20T00:25:38.649Z,99.90
2019-06-20T00:28:07.337Z,99.90
2019-06-20T00:30:37.667Z,99.90
2019-06-20T00:33:06.371Z,99.90
2019-06-20T00:35:35.068Z,99.90
2019-06-20T00:38:03.859Z,99.90
2019-06-20T00:40:32.561Z,99.90
2019-06-20T00:43:16.270Z,99.90
2019-06-20T00:45:31.608Z,99.90
2019-06-20T00:48:00.390Z,99.90
2019-06-20T00:50:29.071Z,99.90
2019-06-20T00:52:57.764Z,99.90
2019-06-20T00:55:26.473Z,99.90
2019-06-20T00:57:55.167Z,99.90
2019-06-20T01:00:23.883Z,99.90
2019-06-20T01:02:52.680Z,99.90
2019-06-20T01:05:21.447Z,99.90
2019-06-20T01:07:50.148Z,99.90
2019-06-20T01:10:18.904Z,99.90
2019-06-20T01:12:47.608Z,99.90
2019-06-20T01:15:16.627Z,99.90
2019-06-20T01:17:47.700Z,99.90
2019-06-20T01:20:16.700Z,99.90
2019-06-20T01:22:45.690Z,99.90
2019-06-20T01:25:14.730Z,99.90
2019-06-20T01:27:43.445Z,99.90
2019-06-20T01:30:12.535Z,99.90
2019-06-20T01:32:41.239Z,99.90
2019-06-20T01:35:10.437Z,99.90
2019-06-20T01:37:39.140Z,99.90
2019-06-20T01:40:08.114Z,99.90
2019-06-20T01:42:36.851Z,99.90
2019-06-20T01:45:07.056Z,99.90
2019-06-20T01:47:36.058Z,99.90
2019-06-20T01:50:06.465Z,99.90
2019-06-20T01:52:35.182Z,99.90
2019-06-20T01:55:04.788Z,99.90
2019-06-20T01:57:33.484Z,99.90
2019-06-20T02:00:02.302Z,99.90
2019-06-20T02:02:31.088Z,99.90
2019-06-20T02:04:59.883Z,99.90
2019-06-20T02:07:28.640Z,99.90
2019-06-20T02:09:57.342Z,99.90
2019-06-20T02:12:26.036Z,99.90
2019-06-20T02:14:54.815Z,99.90
2019-06-20T02:17:23.539Z,99.90
2019-06-20T02:19:52.238Z,99.90
2019-06-20T02:22:20.961Z,99.90
2019-06-20T02:24:49.653Z,99.90
2019-06-20T02:27:18.360Z,99.90
2019-06-20T02:29:47.056Z,99.90
2019-06-20T02:32:15.768Z,99.90
2019-06-20T02:34:44.472Z,99.90
2019-06-20T02:37:13.244Z,99.90
2019-06-20T02:39:41.912Z,99.90
2019-06-20T02:42:10.646Z,99.90
2019-06-20T02:44:39.327Z,99.90
2019-06-20T02:47:08.034Z,99.90
2019-06-20T02:49:36.750Z,99.90
2019-06-20T02:52:05.454Z,99.90
2019-06-20T02:54:34.161Z,99.90
2019-06-20T02:57:02.848Z,99.90
2019-06-20T02:59:31.551Z,99.90
2019-06-20T03:02:00.252Z,99.90
2019-06-20T03:04:28.962Z,99.90
2019-06-20T03:06:57.664Z,99.90
2019-06-20T03:09:26.371Z,99.90
2019-06-20T03:11:55.107Z,99.90
2019-06-20T03:14:23.787Z,99.90
2019-06-20T03:16:52.483Z,99.90
2019-06-20T03:19:21.247Z,99.90
2019-06-20T03:21:49.978Z,99.90
2019-06-20T03:24:18.643Z,99.90
2019-06-20T03:26:47.352Z,99.90
2019-06-20T03:29:16.054Z,99.90
2019-06-20T03:31:44.767Z,99.90
2019-06-20T03:34:13.464Z,99.90
2019-06-20T03:36:42.171Z,99.90
2019-06-20T03:39:10.923Z,99.90
2019-06-20T03:41:39.671Z,99.90
2019-06-20T03:44:08.342Z,99.90
2019-06-20T03:46:38.508Z,99.90
2019-06-20T03:49:07.209Z,99.90
2019-06-20T03:51:35.943Z,99.90
2019-06-20T03:54:04.739Z,99.90
2019-06-20T03:56:33.443Z,99.90
2019-06-20T03:59:02.149Z,99.90
2019-06-20T04:01:30.935Z,99.90
2019-06-20T04:03:59.528Z,99.90
2019-06-20T04:06:28.267Z,99.90
2019-06-20T04:08:56.986Z,99.90
2019-06-20T04:11:25.743Z,99.90
2019-06-20T04:13:54.448Z,99.90
2019-06-20T04:16:23.075Z,99.90
2019-06-20T04:18:51.729Z,99.90
2019-06-20T04:21:20.427Z,99.90
2019-06-20T04:23:49.131Z,99.90
2019-06-20T04:26:17.827Z,99.90
2019-06-20T04:28:46.532Z,99.90
2019-06-20T04:31:15.252Z,99.90
2019-06-20T04:33:43.951Z,99.90
2019-06-20T04:36:12.649Z,99.90
2019-06-20T04:38:41.362Z,99.90
2019-06-20T04:41:10.059Z,99.90
2019-06-20T04:43:38.773Z,99.90
2019-06-20T04:46:09.078Z,99.90
2019-06-20T04:48:37.843Z,99.90
2019-06-20T04:51:06.542Z,99.90
2019-06-20T04:53:35.331Z,99.90
2019-06-20T04:56:05.766Z,99.90
2019-06-20T04:58:34.488Z,99.90
2019-06-20T05:01:03.206Z,99.90
2019-06-20T05:03:31.902Z,99.90
2019-06-20T05:06:00.606Z,99.90
2019-06-20T05:08:29.312Z,99.90
2019-06-20T05:10:58.042Z,99.90
2019-06-20T05:13:26.759Z,99.90
2019-06-20T05:15:55.370Z,99.90
2019-06-20T05:18:24.074Z,99.90
2019-06-20T05:20:52.799Z,99.90
2019-06-20T05:23:21.498Z,99.90
2019-06-20T05:25:50.264Z,99.90
2019-06-20T05:28:19.004Z,99.90
2019-06-20T05:30:47.875Z,95.10
2019-06-20T05:33:16.571Z,96.20
2019-06-20T05:35:45.270Z,99.90
2019-06-20T05:38:13.959Z,99.90
2019-06-20T05:40:42.650Z,99.90
2019-06-20T05:43:11.205Z,99.90
2019-06-20T05:45:40.107Z,99.90
2019-06-20T05:48:09.195Z,99.90
2019-06-20T05:50:38.107Z,99.90
2019-06-20T05:53:06.737Z,99.90
2019-06-20T05:55:35.745Z,99.90
2019-06-20T05:58:04.467Z,99.90
2019-06-20T06:00:33.139Z,99.90
2019-06-20T06:03:01.836Z,99.90
2019-06-20T06:05:30.540Z,99.90
2019-06-20T06:07:59.234Z,99.90
2019-06-20T06:10:27.960Z,99.90
2019-06-20T06:12:56.627Z,99.90
2019-06-20T06:15:25.547Z,99.90
2019-06-20T06:17:54.254Z,99.90
2019-06-20T06:20:23.246Z,99.90
2019-06-20T06:22:51.883Z,99.90
2019-06-20T06:25:20.579Z,87.90
2019-06-20T06:27:49.371Z,84.40
2019-06-20T06:30:18.574Z,95.00
2019-06-20T06:32:47.374Z,94.80
2019-06-20T06:35:16.375Z,99.90
2019-06-20T06:37:45.100Z,99.90
2019-06-20T06:40:16.261Z,99.90
2019-06-20T06:42:44.962Z,99.90
2019-06-20T06:45:17.575Z,99.90
2019-06-20T06:47:46.318Z,99.90
2019-06-20T06:50:15.627Z,99.90
2019-06-20T06:52:44.334Z,99.90
2019-06-20T06:55:14.119Z,99.90
2019-06-20T06:57:42.879Z,99.90
2019-06-20T07:00:12.879Z,99.90
2019-06-20T07:02:41.665Z,99.90
2019-06-20T07:05:11.566Z,99.90
2019-06-20T07:07:40.263Z,99.90
2019-06-20T07:10:10.065Z,99.00
2019-06-20T07:12:38.825Z,82.80
2019-06-20T07:15:08.972Z,63.00
2019-06-20T07:17:37.613Z,57.00
2019-06-20T07:20:09.667Z,52.40
2019-06-20T07:22:38.460Z,51.10
2019-06-20T07:25:08.065Z,55.80
2019-06-20T07:27:36.802Z,55.00
2019-06-20T07:30:10.410Z,56.10
2019-06-20T07:32:39.179Z,53.90
2019-06-20T07:35:10.099Z,54.50
2019-06-20T07:37:38.814Z,55.70
2019-06-20T07:40:08.513Z,52.50
2019-06-20T07:42:37.363Z,52.10
2019-06-20T07:45:08.546Z,47.50
2019-06-20T07:47:37.471Z,49.10
2019-06-20T07:50:10.469Z,46.20
2019-06-20T07:52:39.160Z,46.00
2019-06-20T07:55:09.351Z,49.50
2019-06-20T07:57:38.330Z,46.80
2019-06-20T08:00:14.568Z,51.20
2019-06-20T08:02:43.264Z,47.80
2019-06-20T08:05:12.508Z,48.50
2019-06-20T08:07:41.196Z,46.50
2019-06-20T08:10:12.470Z,45.30
2019-06-20T08:12:41.253Z,46.80
2019-06-20T08:15:15.676Z,47.00
2019-06-20T08:17:42.361Z,47.40
2019-06-20T08:20:12.715Z,47.00
2019-06-20T08:22:41.521Z,41.90
2019-06-20T08:25:13.383Z,47.30
2019-06-20T08:27:52.966Z,44.90
2019-06-20T08:30:23.956Z,46.60
2019-06-20T08:32:52.689Z,51.00
2019-06-20T08:35:26.544Z,53.90
2019-06-20T08:37:57.316Z,47.20
2019-06-20T08:40:27.494Z,46.70
2019-06-20T08:42:57.158Z,48.10
2019-06-20T08:45:29.402Z,47.60
2019-06-20T08:47:58.382Z,50.00
2019-06-20T08:50:27.401Z,47.10
2019-06-20T08:52:57.650Z,50.70
2019-06-20T08:55:26.683Z,51.60
2019-06-20T08:57:56.262Z,50.40
2019-06-20T09:00:26.929Z,49.10
2019-06-20T09:02:56.899Z,51.50
2019-06-20T09:05:26.274Z,53.00
2019-06-20T09:07:56.754Z,49.20
2019-06-20T09:10:34.206Z,48.80
2019-06-20T09:13:03.825Z,46.50
2019-06-20T09:15:32.651Z,46.40
2019-06-20T09:18:02.738Z,46.30
2019-06-20T09:20:31.751Z,50.40
2019-06-20T09:23:01.083Z,50.20
2019-06-20T09:25:29.887Z,52.50
2019-06-20T09:28:00.307Z,53.20
2019-06-20T09:30:29.727Z,55.30
2019-06-20T09:32:59.887Z,56.60
2019-06-20T09:35:29.347Z,61.40
2019-06-20T09:37:59.200Z,59.20
2019-06-20T09:40:28.536Z,58.90
2019-06-20T09:42:58.669Z,64.70
2019-06-20T09:45:28.055Z,80.80
2019-06-20T09:47:58.133Z,74.70
2019-06-20T09:50:27.542Z,64.80
2019-06-20T09:52:56.737Z,63.00
2019-06-20T09:55:25.563Z,61.90
2019-06-20T09:57:55.755Z,64.70
2019-06-20T10:00:27.768Z,67.10
2019-06-20T10:02:57.846Z,65.50
2019-06-20T10:05:26.860Z,64.50
2019-06-20T10:07:56.759Z,59.70
2019-06-20T10:10:29.834Z,58.00
2019-06-20T10:12:58.807Z,55.30
2019-06-20T10:15:32.319Z,57.40
2019-06-20T10:18:01.016Z,57.90
2019-06-20T10:20:29.815Z,58.60
2019-06-20T10:22:58.514Z,61.80
2019-06-20T10:25:27.131Z,61.90
2019-06-20T10:27:55.834Z,60.60
2019-06-20T10:30:26.495Z,61.40
2019-06-20T10:32:55.200Z,61.00
2019-06-20T10:35:23.935Z,63.00
2019-06-20T10:37:53.125Z,63.20
2019-06-20T10:40:22.447Z,76.70
2019-06-20T10:42:52.787Z,76.10
2019-06-20T10:45:23.662Z,93.20
2019-06-20T10:47:52.987Z,85.30
2019-06-20T10:50:22.355Z,68.90
2019-06-20T10:52:51.847Z,59.90
2019-06-20T10:55:20.918Z,57.90
2019-06-20T10:57:50.047Z,56.70
2019-06-20T11:00:30.352Z,56.60
2019-06-20T11:02:51.277Z,60.20
2019-06-20T11:05:20.291Z,56.60
2019-06-20T11:07:49.986Z,56.80
2019-06-20T11:10:19.532Z,59.80
2019-06-20T11:12:54.846Z,60.30
2019-06-20T11:15:19.343Z,58.90
2019-06-20T11:17:48.465Z,63.10
2019-06-20T11:20:17.639Z,62.80
2019-06-20T11:22:47.825Z,63.50
2019-06-20T11:25:19.132Z,59.10
2019-06-20T11:27:47.384Z,56.30
2019-06-20T11:30:25.179Z,55.60
2019-06-20T11:32:53.866Z,53.90
2019-06-20T11:35:22.556Z,54.60
2019-06-20T11:37:51.320Z,52.90
2019-06-20T11:40:20.427Z,54.90
2019-06-20T11:42:49.128Z,55.80
2019-06-20T11:45:19.409Z,56.50
2019-06-20T11:47:48.091Z,60.10
2019-06-20T11:50:18.595Z,59.00
2019-06-20T11:52:47.290Z,64.30
2019-06-20T11:55:16.291Z,60.90
2019-06-20T11:57:45.040Z,57.10
2019-06-20T12:00:16.612Z,55.80
2019-06-20T12:02:46.144Z,56.10
2019-06-20T12:05:15.611Z,52.10
2019-06-20T12:07:45.634Z,55.00
2019-06-20T12:10:15.280Z,55.40
2019-06-20T12:12:44.753Z,58.80
2019-06-20T12:15:16.279Z,52.40
2019-06-20T12:17:45.398Z,57.40
2019-06-20T12:20:16.018Z,56.60
2019-06-20T12:22:45.068Z,56.90
2019-06-20T12:25:14.407Z,55.30
2019-06-20T12:27:43.261Z,54.50
2019-06-20T12:30:14.480Z,55.10
2019-06-20T12:32:44.606Z,56.90
2019-06-20T12:35:14.075Z,56.90
2019-06-20T12:37:42.994Z,60.00
2019-06-20T12:40:12.221Z,64.80
2019-06-20T12:42:41.752Z,70.40
2019-06-20T12:45:12.757Z,73.10
2019-06-20T12:47:41.902Z,76.40
2019-06-20T12:50:11.959Z,84.80
2019-06-20T12:52:41.377Z,91.30
2019-06-20T12:55:12.484Z,99.20
2019-06-20T12:57:42.266Z,99.90
2019-06-20T13:00:13.389Z,99.90
2019-06-20T13:02:43.710Z,99.90
2019-06-20T13:05:12.830Z,99.90
2019-06-20T13:07:42.370Z,99.90
2019-06-20T13:10:11.404Z,99.90
2019-06-20T13:12:42.252Z,99.90
2019-06-20T13:15:10.639Z,99.90
2019-06-20T13:17:39.961Z,99.90
2019-06-20T13:20:10.191Z,99.90
2019-06-20T13:22:39.498Z,99.90
2019-06-20T13:25:10.459Z,99.90
2019-06-20T13:27:39.667Z,99.90
2019-06-20T13:30:10.269Z,99.90
2019-06-20T13:32:40.252Z,99.90
2019-06-20T13:35:10.732Z,99.90
2019-06-20T13:37:40.206Z,99.90
2019-06-20T13:40:11.939Z,99.90
2019-06-20T13:42:42.091Z,99.90
2019-06-20T13:45:22.823Z,99.90
2019-06-20T13:47:52.020Z,99.90
2019-06-20T13:50:22.323Z,99.90
2019-06-20T13:52:51.504Z,99.90
2019-06-20T13:55:20.312Z,99.90
2019-06-20T13:57:49.356Z,99.90
2019-06-20T14:00:20.612Z,99.90
2019-06-20T14:02:51.109Z,99.90
2019-06-20T14:05:20.076Z,99.90
2019-06-20T14:07:51.923Z,99.90
2019-06-20T14:10:19.201Z,99.90
2019-06-20T14:12:49.375Z,99.90
2019-06-20T14:15:19.445Z,99.90
2019-06-20T14:17:49.750Z,99.90
2019-06-20T14:20:19.507Z,99.90
2019-06-20T14:22:49.375Z,99.90
2019-06-20T14:25:19.966Z,99.90
2019-06-20T14:27:49.177Z,99.90
2019-06-20T14:30:18.570Z,99.90
2019-06-20T14:32:47.363Z,99.90
2019-06-20T14:35:16.363Z,99.90
2019-06-20T14:38:04.333Z,92.20
2019-06-20T14:40:32.958Z,95.60
2019-06-20T14:43:01.651Z,99.90
2019-06-20T14:45:48.704Z,99.90
2019-06-20T14:48:17.397Z,98.10
2019-06-20T14:50:47.725Z,72.60
2019-06-20T14:53:16.511Z,71.50
2019-06-20T14:55:46.018Z,70.30
2019-06-20T14:58:15.339Z,65.20
2019-06-20T15:00:45.184Z,63.90
2019-06-20T15:03:14.382Z,65.10
2019-06-20T15:05:44.745Z,68.70
2019-06-20T15:08:13.472Z,70.00
2019-06-20T15:10:42.166Z,66.20
2019-06-20T15:13:10.870Z,66.90
2019-06-20T15:15:39.683Z,68.60
2019-06-20T15:18:08.367Z,69.30
2019-06-20T15:20:37.060Z,70.20
2019-06-20T15:23:05.767Z,68.20
2019-06-20T15:25:34.468Z,69.90
2019-06-20T15:28:03.173Z,70.60
2019-06-20T15:30:31.867Z,66.90
2019-06-20T15:33:09.380Z,68.20
2019-06-20T15:35:30.907Z,64.20
2019-06-20T15:37:59.527Z,67.60
2019-06-20T15:40:28.222Z,68.30
2019-06-20T15:42:58.546Z,71.60
2019-06-20T15:45:27.329Z,77.90
2019-06-20T15:47:56.014Z,91.10
2019-06-20T15:50:24.717Z,94.40
2019-06-20T15:52:53.402Z,98.80
2019-06-20T15:55:22.098Z,99.90
2019-06-20T15:57:53.930Z,99.90
2019-06-20T16:00:21.442Z,99.90
2019-06-20T16:02:50.208Z,99.90
2019-06-20T16:05:19.644Z,99.90
2019-06-20T16:07:48.411Z,99.90
2019-06-20T16:10:17.207Z,99.90
2019-06-20T16:12:45.905Z,99.90
2019-06-20T16:15:17.629Z,99.90
2019-06-20T16:17:46.315Z,99.90
2019-06-20T16:20:15.118Z,99.90
2019-06-20T16:22:43.811Z,99.90
2019-06-20T16:25:12.623Z,99.90
2019-06-20T16:27:41.332Z,99.90
2019-06-20T16:30:10.815Z,99.90
2019-06-20T16:32:39.513Z,99.90
2019-06-20T16:35:08.911Z,99.90
2019-06-20T16:37:37.610Z,99.90
2019-06-20T16:40:08.392Z,99.90
2019-06-20T16:42:38.547Z,99.90
2019-06-20T16:45:08.546Z,99.90
2019-06-20T16:47:37.270Z,99.90
2019-06-20T16:50:06.813Z,99.90
2019-06-20T16:52:35.567Z,99.90
2019-06-20T16:55:08.277Z,99.90
2019-06-20T16:57:37.180Z,99.90
2019-06-20T17:00:10.396Z,99.90
2019-06-20T17:02:39.137Z,99.90
2019-06-20T17:05:08.153Z,99.90
2019-06-20T17:07:36.858Z,99.90
2019-06-20T17:10:08.745Z,99.90
2019-06-20T17:12:37.454Z,99.90
2019-06-20T17:15:07.970Z,99.90
2019-06-20T17:17:36.933Z,99.90
2019-06-20T17:20:08.562Z,99.90
2019-06-20T17:22:37.462Z,99.90
2019-06-20T17:25:09.214Z,99.90
2019-06-20T17:27:37.923Z,99.90
2019-06-20T17:30:14.412Z,99.90
2019-06-20T17:32:43.115Z,99.90
2019-06-20T17:35:13.130Z,99.90
2019-06-20T17:37:44.872Z,99.90
2019-06-20T17:40:14.268Z,99.90
2019-06-20T17:42:43.043Z,99.90
2019-06-20T17:45:13.522Z,99.90
2019-06-20T17:47:42.220Z,99.90
2019-06-20T17:50:12.132Z,99.90
2019-06-20T17:52:40.819Z,99.90
2019-06-20T17:55:10.027Z,99.90
2019-06-20T17:57:39.024Z,99.90
2019-06-20T18:00:13.321Z,99.90
2019-06-20T18:02:42.023Z,99.90
2019-06-20T18:05:11.029Z,99.90
2019-06-20T18:07:39.732Z,99.90
2019-06-20T18:10:09.240Z,99.90
2019-06-20T18:12:37.974Z,99.90
2019-06-20T18:15:07.823Z,99.90
2019-06-20T18:17:36.531Z,99.90
2019-06-20T18:20:08.862Z,99.90
2019-06-20T18:25:23.984Z,99.90
2019-06-20T18:27:52.618Z,99.90
2019-06-20T18:30:24.243Z,99.90
2019-06-20T18:32:53.014Z,99.90
2019-06-20T18:35:21.706Z,99.90
2019-06-20T18:37:50.423Z,99.90
2019-06-20T18:40:19.176Z,99.90
2019-06-20T18:42:49.338Z,99.90
2019-06-20T18:45:18.027Z,99.90
2019-06-20T18:47:46.735Z,99.90
2019-06-20T18:50:17.811Z,99.90
2019-06-20T18:52:52.041Z,99.90
2019-06-20T18:55:17.758Z,99.90
2019-06-20T18:57:46.557Z,99.90
2019-06-20T19:00:15.867Z,99.90
2019-06-20T19:02:44.559Z,99.90
2019-06-20T19:05:13.370Z,99.90
2019-06-20T19:07:42.058Z,99.90
2019-06-20T19:10:12.347Z,99.90
2019-06-20T19:12:41.248Z,99.90
2019-06-20T19:15:10.791Z,99.90
2019-06-20T19:17:58.759Z,99.90
2019-06-20T19:20:27.463Z,99.90
2019-06-20T19:22:57.616Z,99.90
2019-06-20T19:25:26.325Z,99.90
2019-06-20T19:27:55.009Z,99.90
2019-06-20T19:30:26.649Z,99.90
2019-06-20T19:32:55.343Z,99.90
2019-06-20T19:35:24.112Z,99.90
2019-06-20T19:37:52.875Z,99.90
2019-06-20T19:40:24.511Z,99.90
2019-06-20T19:42:53.215Z,99.90
2019-06-20T19:45:22.210Z,99.90
2019-06-20T19:47:50.915Z,99.90
2019-06-20T19:50:19.618Z,99.90
2019-06-20T19:52:48.379Z,99.90
2019-06-20T19:55:17.275Z,99.90
2019-06-20T19:57:45.975Z,99.90
2019-06-20T20:00:15.092Z,99.90
2019-06-20T20:02:43.775Z,99.90
2019-06-20T20:05:19.288Z,99.90
2019-06-20T20:07:43.326Z,99.90
2019-06-20T20:10:13.928Z,99.90
2019-06-20T20:12:42.633Z,99.90
2019-06-20T20:15:11.627Z,99.90
2019-06-20T20:17:40.322Z,99.90
2019-06-20T20:20:09.327Z,99.90
2019-06-20T20:22:39.031Z,99.90
2019-06-20T20:25:08.541Z,99.90
2019-06-20T20:27:37.235Z,99.90
2019-06-20T20:30:10.580Z,99.90
2019-06-20T20:32:39.399Z,99.90
2019-06-20T20:35:09.635Z,99.90
2019-06-20T20:37:38.344Z,99.90
2019-06-20T20:40:08.143Z,99.90
2019-06-20T20:42:36.846Z,99.90
2019-06-20T20:45:08.825Z,99.90
2019-06-20T20:47:37.531Z,99.90
2019-06-20T20:50:07.531Z,99.90
2019-06-20T20:52:36.241Z,99.90
2019-06-20T20:55:06.705Z,99.90
2019-06-20T20:57:35.355Z,99.90
2019-06-20T21:00:23.347Z,99.90
2019-06-20T21:02:52.624Z,99.90
2019-06-20T21:05:21.337Z,99.90
2019-06-20T21:07:50.120Z,99.90
2019-06-20T21:10:19.039Z,99.90
2019-06-20T21:12:47.748Z,99.90
2019-06-20T21:15:16.646Z,99.90
2019-06-20T21:17:45.363Z,99.90
2019-06-20T21:20:14.961Z,99.90
2019-06-20T21:22:43.599Z,99.90
2019-06-20T21:25:12.598Z,99.90
2019-06-20T21:27:41.378Z,99.90
2019-06-20T21:30:10.988Z,99.90
2019-06-20T21:32:39.784Z,99.90
2019-06-20T21:35:09.191Z,99.90
2019-06-20T21:37:37.990Z,99.90
2019-06-20T21:40:07.673Z,99.90
2019-06-20T21:42:36.371Z,99.90
2019-06-20T21:45:06.938Z,99.90
2019-06-20T21:47:35.634Z,99.90
2019-06-20T21:50:06.449Z,99.90
2019-06-20T21:52:35.142Z,99.90
2019-06-20T21:55:07.682Z,99.90
2019-06-20T21:57:36.576Z,99.90
2019-06-20T22:00:14.855Z,99.90
2019-06-20T22:02:43.580Z,99.90
2019-06-20T22:05:12.472Z,99.90
2019-06-20T22:07:41.179Z,99.90
2019-06-20T22:10:10.102Z,99.90
2019-06-20T22:12:38.799Z,99.90
2019-06-20T22:15:07.699Z,99.90
2019-06-20T22:17:36.412Z,99.90
2019-06-20T22:20:08.750Z,99.90
2019-06-20T22:22:37.456Z,99.90
2019-06-20T22:25:07.634Z,99.90
2019-06-20T22:27:36.347Z,99.90
2019-06-20T22:30:10.202Z,99.90
2019-06-20T22:32:38.914Z,99.90
2019-06-20T22:35:07.999Z,99.90
2019-06-20T22:37:36.707Z,99.90
2019-06-20T22:40:07.699Z,99.90
2019-06-20T22:42:36.626Z,99.90
2019-06-20T22:45:07.334Z,99.90
2019-06-20T22:47:36.029Z,99.90
2019-06-20T22:50:09.112Z,99.90
2019-06-20T22:52:37.743Z,99.90
2019-06-20T22:55:09.394Z,99.90
2019-06-20T22:57:38.096Z,99.90
2019-06-20T23:00:07.999Z,99.90
2019-06-20T23:02:36.699Z,99.90
2019-06-20T23:05:06.505Z,99.90
2019-06-20T23:07:35.212Z,99.90
2019-06-20T23:10:10.417Z,99.90
2019-06-20T23:12:36.764Z,99.90
2019-06-20T23:15:07.579Z,99.90
2019-06-20T23:17:36.283Z,99.90
2019-06-20T23:20:07.447Z,99.90
2019-06-20T23:22:36.322Z,99.90
2019-06-20T23:25:06.330Z,99.90
2019-06-20T23:27:35.119Z,99.90
2019-06-20T23:30:08.811Z,99.90
2019-06-20T23:32:37.513Z,99.90
2019-06-20T23:35:07.120Z,99.90
2019-06-20T23:37:36.729Z,99.90
2019-06-20T23:40:07.798Z,99.90
2019-06-20T23:42:36.553Z,99.90
2019-06-20T23:45:09.610Z,99.90
2019-06-20T23:47:38.510Z,99.90
2019-06-20T23:50:10.294Z,99.90
2019-06-20T23:52:56.534Z,99.90
2019-06-20T23:55:25.294Z,99.90
2019-06-20T23:57:54.004Z,99.90
